Time;durP1;ratioP1;P1;durP2;ratioP2;P2;SDS_P1;SDS_P2;PMS_P1;PMS_P2;Temp;Humidity;BMP_temperature;BMP_pressure;BME280_temperature;BME280_humidity;BME280_pressure;Samples;Min_cycle;Max_cycle;Signal;HPM_P1;HPM_P2
2022/07/09 00:00:29;;;;;;;4.72;1.88;;;;;;;;;;5007364;28;20050;-66
2022/07/09 00:02:55;;;;;;;3.17;1.70;;;;;;;;;;5004161;28;20065;-65
2022/07/09 00:05:23;;;;;;;3.55;1.73;;;;;;;;;;4979856;28;20065;-65
2022/07/09 00:07:50;;;;;;;4.13;1.75;;;;;;;;;;4987967;28;20069;-66
2022/07/09 00:10:17;;;;;;;4.63;1.73;;;;;;;;;;4976167;28;20046;-66
2022/07/09 00:12:43;;;;;;;4.03;1.75;;;;;;;;;;4987917;28;20078;-65
2022/07/09 00:15:10;;;;;;;5.30;1.98;;;;;;;;;;4976351;28;20053;-65
2022/07/09 00:17:37;;;;;;;5.22;1.63;;;;;;;;;;5007457;28;20057;-65
2022/07/09 00:20:05;;;;;;;4.18;1.80;;;;;;;;;;4994196;28;20061;-65
2022/07/09 00:22:33;;;;;;;3.90;1.80;;;;;;;;;;4986886;28;20054;-65
2022/07/09 00:25:00;;;;;;;3.30;1.60;;;;;;;;;;4985722;28;20068;-65
2022/07/09 00:27:26;;;;;;;3.67;1.60;;;;;;;;;;4965991;28;20062;-65
2022/07/09 00:29:53;;;;;;;3.50;1.52;;;;;;;;;;4968174;28;20055;-66
2022/07/09 00:32:20;;;;;;;4.22;1.75;;;;;;;;;;4964434;28;20051;-66
2022/07/09 00:34:47;;;;;;;3.22;1.52;;;;;;;;;;4967537;28;20050;-64
2022/07/09 00:37:14;;;;;;;4.40;1.73;;;;;;;;;;4963639;28;20061;-65
2022/07/09 00:39:42;;;;;;;4.05;1.90;;;;;;;;;;4968191;28;20062;-65
2022/07/09 00:42:09;;;;;;;4.60;1.80;;;;;;;;;;4965740;28;20055;-65
2022/07/09 00:44:36;;;;;;;3.27;1.60;;;;;;;;;;4985193;28;20061;-65
2022/07/09 00:47:04;;;;;;;3.28;1.60;;;;;;;;;;4987838;28;20306;-66
2022/07/09 00:49:31;;;;;;;5.15;1.60;;;;;;;;;;4979011;28;20141;-65
2022/07/09 00:51:58;;;;;;;4.07;1.77;;;;;;;;;;4987567;28;20058;-65
2022/07/09 00:54:26;;;;;;;4.88;1.90;;;;;;;;;;4980115;28;20054;-65
2022/07/09 00:56:54;;;;;;;2.80;1.40;;;;;;;;;;4987396;28;20062;-65
2022/07/09 00:59:21;;;;;;;6.90;1.73;;;;;;;;;;4977017;28;20069;-66
2022/07/09 01:01:47;;;;;;;5.13;1.60;;;;;;;;;;4967873;28;20082;-65
2022/07/09 01:04:14;;;;;;;3.60;1.80;;;;;;;;;;4969240;28;20545;-65
2022/07/09 01:06:41;;;;;;;5.45;1.70;;;;;;;;;;5002426;28;20078;-66
2022/07/09 01:09:08;;;;;;;3.55;1.73;;;;;;;;;;5004557;28;20077;-65
2022/07/09 01:11:35;;;;;;;3.35;1.85;;;;;;;;;;4981442;28;20046;-66
2022/07/09 01:14:03;;;;;;;3.30;1.55;;;;;;;;;;4986833;28;20046;-66
2022/07/09 01:16:33;;;;;;;4.07;1.80;;;;;;;;;;4971668;28;20066;-66
2022/07/09 01:19:00;;;;;;;3.92;1.92;;;;;;;;;;4970817;28;20152;-66
2022/07/09 01:21:28;;;;;;;2.60;1.38;;;;;;;;;;4968402;28;20156;-66
2022/07/09 01:23:56;;;;;;;3.90;1.70;;;;;;;;;;4975292;28;20050;-65
2022/07/09 01:26:24;;;;;;;3.53;1.60;;;;;;;;;;4972814;28;20054;-65
2022/07/09 01:28:50;;;;;;;3.75;1.70;;;;;;;;;;4972936;28;20087;-65
2022/07/09 01:31:18;;;;;;;3.03;1.60;;;;;;;;;;4974016;28;20054;-65
2022/07/09 01:33:45;;;;;;;4.18;1.90;;;;;;;;;;4980310;28;20073;-65
2022/07/09 01:36:11;;;;;;;5.40;1.98;;;;;;;;;;4994697;28;20109;-65
2022/07/09 01:38:39;;;;;;;4.38;1.70;;;;;;;;;;4979793;28;20066;-65
2022/07/09 01:41:06;;;;;;;4.55;1.70;;;;;;;;;;4978795;28;20042;-66
2022/07/09 01:43:34;;;;;;;4.20;1.52;;;;;;;;;;4986823;28;20054;-65
2022/07/09 01:46:01;;;;;;;3.20;1.73;;;;;;;;;;4991473;28;20073;-65
2022/07/09 01:48:27;;;;;;;3.75;1.70;;;;;;;;;;4990821;28;20050;-65
2022/07/09 01:50:58;;;;;;;4.97;1.73;;;;;;;;;;4986460;28;20057;-66
2022/07/09 01:53:24;;;;;;;4.05;1.77;;;;;;;;;;4993737;28;20057;-65
2022/07/09 01:55:53;;;;;;;2.63;1.63;;;;;;;;;;4980757;28;20046;-65
2022/07/09 01:58:19;;;;;;;5.18;1.77;;;;;;;;;;4974148;28;20520;-65
2022/07/09 02:00:46;;;;;;;4.28;1.60;;;;;;;;;;4970237;28;20073;-67
2022/07/09 02:03:12;;;;;;;3.33;1.65;;;;;;;;;;4992627;28;20065;-65
2022/07/09 02:05:39;;;;;;;3.47;1.60;;;;;;;;;;4989755;28;20053;-65
2022/07/09 02:08:06;;;;;;;3.55;1.63;;;;;;;;;;4988629;28;20152;-65
2022/07/09 02:10:33;;;;;;;5.30;1.65;;;;;;;;;;4993622;28;20099;-66
2022/07/09 02:13:00;;;;;;;3.30;1.63;;;;;;;;;;4985150;28;20100;-65
2022/07/09 02:15:27;;;;;;;3.97;1.90;;;;;;;;;;4992014;28;20053;-65
2022/07/09 02:17:54;;;;;;;3.00;1.55;;;;;;;;;;4984423;28;20153;-65
2022/07/09 02:20:22;;;;;;;3.35;1.58;;;;;;;;;;4993227;28;20065;-66
2022/07/09 02:22:49;;;;;;;;;;;;;;;;;;4990076;28;20164;-65
2022/07/09 02:25:15;;;;;;;2.88;1.40;;;;;;;;;;5009515;28;19925;-65
2022/07/09 02:27:42;;;;;;;3.25;1.90;;;;;;;;;;5003720;28;20054;-65
2022/07/09 02:30:10;;;;;;;3.50;1.80;;;;;;;;;;4988222;28;20054;-65
2022/07/09 02:32:38;;;;;;;3.95;1.75;;;;;;;;;;4989585;28;20058;-66
2022/07/09 02:35:05;;;;;;;2.60;1.50;;;;;;;;;;5002798;28;20054;-65
2022/07/09 02:37:32;;;;;;;4.30;1.75;;;;;;;;;;5008979;28;20081;-65
2022/07/09 02:39:58;;;;;;;2.85;1.60;;;;;;;;;;5003696;28;20088;-65
2022/07/09 02:42:25;;;;;;;3.78;1.80;;;;;;;;;;5009478;28;20135;-65
2022/07/09 02:44:51;;;;;;;4.15;1.80;;;;;;;;;;4992194;28;20058;-66
2022/07/09 02:47:19;;;;;;;3.20;1.67;;;;;;;;;;4992866;28;20050;-65
2022/07/09 02:49:46;;;;;;;4.32;1.50;;;;;;;;;;5011379;28;20142;-66
2022/07/09 02:52:12;;;;;;;3.97;1.50;;;;;;;;;;4992546;28;20108;-65
2022/07/09 02:54:39;;;;;;;2.97;1.50;;;;;;;;;;4994548;28;20103;-65
2022/07/09 02:57:06;;;;;;;2.88;1.42;;;;;;;;;;5012280;28;20049;-65
2022/07/09 02:59:33;;;;;;;3.90;1.77;;;;;;;;;;5003120;28;20057;-65
2022/07/09 03:02:00;;;;;;;3.53;1.50;;;;;;;;;;5008701;28;20054;-65
2022/07/09 03:04:28;;;;;;;3.47;1.80;;;;;;;;;;5003035;28;20173;-65
2022/07/09 03:06:55;;;;;;;4.03;1.45;;;;;;;;;;5008579;28;20084;-65
2022/07/09 03:09:22;;;;;;;4.80;1.50;;;;;;;;;;5003525;28;20081;-65
2022/07/09 03:11:48;;;;;;;3.72;1.60;;;;;;;;;;5008184;28;20054;-65
2022/07/09 03:14:15;;;;;;;3.95;1.52;;;;;;;;;;5008819;28;20108;-67
2022/07/09 03:16:41;;;;;;;3.70;1.60;;;;;;;;;;4988440;28;20064;-66
2022/07/09 03:19:08;;;;;;;2.40;1.38;;;;;;;;;;4992135;28;20079;-66
2022/07/09 03:21:36;;;;;;;2.92;1.40;;;;;;;;;;5001972;28;20053;-65
2022/07/09 03:24:03;;;;;;;3.72;1.48;;;;;;;;;;5011170;28;20060;-66
2022/07/09 03:26:30;;;;;;;3.53;1.67;;;;;;;;;;5001660;28;20054;-65
2022/07/09 03:28:56;;;;;;;4.65;1.65;;;;;;;;;;5008145;28;20077;-64
2022/07/09 03:31:24;;;;;;;2.65;1.30;;;;;;;;;;4994888;28;20054;-66
2022/07/09 03:33:53;;;;;;;3.35;1.50;;;;;;;;;;5008871;28;20111;-66
2022/07/09 03:36:19;;;;;;;6.68;1.77;;;;;;;;;;4991466;28;20049;-65
2022/07/09 03:38:47;;;;;;;3.20;1.70;;;;;;;;;;5007703;28;20057;-65
2022/07/09 03:41:14;;;;;;;3.15;1.58;;;;;;;;;;5001620;28;20045;-65
2022/07/09 03:43:40;;;;;;;1.85;1.30;;;;;;;;;;5007211;28;20053;-66
2022/07/09 03:46:07;;;;;;;3.97;1.80;;;;;;;;;;4985404;28;20093;-65
2022/07/09 03:48:34;;;;;;;6.22;1.58;;;;;;;;;;4990846;28;20057;-66
2022/07/09 03:51:01;;;;;;;3.58;1.67;;;;;;;;;;4987181;28;20144;-66
2022/07/09 03:53:30;;;;;;;2.60;1.45;;;;;;;;;;5011056;28;20053;-65
2022/07/09 03:55:59;;;;;;;5.13;1.50;;;;;;;;;;5010974;28;20134;-66
2022/07/09 03:58:25;;;;;;;3.17;1.70;;;;;;;;;;4989287;28;20085;-66
2022/07/09 04:00:54;;;;;;;3.97;1.40;;;;;;;;;;4990784;28;20124;-66
2022/07/09 04:03:20;;;;;;;;;;;;;;;;;;4983367;28;20057;-66
2022/07/09 04:05:47;;;;;;;3.83;1.25;;;;;;;;;;4988367;28;19922;-66
2022/07/09 04:08:14;;;;;;;4.15;1.73;;;;;;;;;;4996970;28;20057;-66
2022/07/09 04:10:44;;;;;;;3.57;1.77;;;;;;;;;;5008411;28;20054;-66
2022/07/09 04:13:12;;;;;;;3.20;1.60;;;;;;;;;;4990860;28;20109;-65
2022/07/09 04:15:38;;;;;;;3.50;1.60;;;;;;;;;;4989898;28;20050;-65
2022/07/09 04:18:04;;;;;;;3.50;1.50;;;;;;;;;;4986208;28;20089;-65
2022/07/09 04:20:31;;;;;;;3.30;1.55;;;;;;;;;;4991265;28;20081;-66
2022/07/09 04:22:58;;;;;;;3.53;1.48;;;;;;;;;;4991031;28;20045;-65
2022/07/09 04:25:27;;;;;;;2.53;1.45;;;;;;;;;;4983395;28;20089;-66
2022/07/09 04:27:54;;;;;;;4.20;1.55;;;;;;;;;;4987405;28;20042;-64
2022/07/09 04:30:22;;;;;;;2.53;1.42;;;;;;;;;;5007262;28;20058;-66
2022/07/09 04:32:48;;;;;;;3.42;1.63;;;;;;;;;;5003955;28;20053;-65
2022/07/09 04:35:15;;;;;;;3.10;1.70;;;;;;;;;;5010257;28;20052;-66
2022/07/09 04:37:43;;;;;;;3.25;1.60;;;;;;;;;;5003251;28;20050;-66
2022/07/09 04:40:10;;;;;;;2.95;1.77;;;;;;;;;;4971532;28;20126;-66
2022/07/09 04:42:36;;;;;;;4.90;1.60;;;;;;;;;;4971340;28;20050;-67
2022/07/09 04:45:03;;;;;;;4.60;1.92;;;;;;;;;;5001781;28;20073;-67
2022/07/09 04:47:31;;;;;;;4.15;2.10;;;;;;;;;;5010190;28;20054;-66
2022/07/09 04:49:58;;;;;;;4.53;2.45;;;;;;;;;;4988464;28;20048;-66
2022/07/09 04:52:26;;;;;;;3.35;1.88;;;;;;;;;;4991823;28;20054;-66
2022/07/09 04:54:53;;;;;;;4.32;1.85;;;;;;;;;;4998937;28;20191;-66
2022/07/09 04:57:20;;;;;;;11.93;5.63;;;;;;;;;;5011236;28;20065;-66
2022/07/09 04:59:47;;;;;;;5.43;2.88;;;;;;;;;;5004941;28;20053;-66
2022/07/09 05:02:13;;;;;;;5.90;2.13;;;;;;;;;;5008831;28;20150;-66
2022/07/09 05:04:42;;;;;;;5.30;2.22;;;;;;;;;;5004481;28;20060;-66
2022/07/09 05:07:08;;;;;;;12.98;3.50;;;;;;;;;;5010232;28;20058;-65
2022/07/09 05:09:35;;;;;;;11.00;4.05;;;;;;;;;;5004019;28;20041;-66
2022/07/09 05:12:01;;;;;;;4.97;2.28;;;;;;;;;;4986178;28;20060;-66
2022/07/09 05:14:28;;;;;;;3.75;1.95;;;;;;;;;;4976893;28;20099;-67
2022/07/09 05:16:54;;;;;;;7.30;2.00;;;;;;;;;;4981921;28;20058;-66
2022/07/09 05:19:21;;;;;;;4.95;2.50;;;;;;;;;;4983924;28;20058;-66
2022/07/09 05:21:49;;;;;;;10.27;3.67;;;;;;;;;;4982851;28;20055;-67
2022/07/09 05:24:16;;;;;;;11.27;4.78;;;;;;;;;;4970317;28;20054;-67
2022/07/09 05:26:42;;;;;;;16.45;6.43;;;;;;;;;;4963995;28;20062;-66
2022/07/09 05:29:09;;;;;;;10.10;4.53;;;;;;;;;;4981410;28;20055;-67
2022/07/09 05:31:35;;;;;;;5.60;2.30;;;;;;;;;;4964802;28;20050;-66
2022/07/09 05:34:02;;;;;;;5.57;2.38;;;;;;;;;;4964152;28;20057;-66
2022/07/09 05:36:29;;;;;;;6.65;2.90;;;;;;;;;;4964970;28;20058;-66
2022/07/09 05:38:58;;;;;;;13.10;6.50;;;;;;;;;;4979327;28;20055;-67
2022/07/09 05:41:25;;;;;;;19.00;8.32;;;;;;;;;;4976671;28;20051;-66
2022/07/09 05:43:52;;;;;;;16.85;7.85;;;;;;;;;;4970347;28;20050;-66
2022/07/09 05:46:18;;;;;;;15.77;7.50;;;;;;;;;;4965102;28;20054;-66
2022/07/09 05:48:45;;;;;;;6.85;3.65;;;;;;;;;;4979695;28;20055;-66
2022/07/09 05:51:12;;;;;;;5.97;2.55;;;;;;;;;;4965784;28;20043;-65
2022/07/09 05:53:38;;;;;;;19.33;7.93;;;;;;;;;;4970279;28;20055;-65
2022/07/09 05:56:09;;;;;;;15.85;7.80;;;;;;;;;;4956448;28;20082;-66
2022/07/09 05:58:37;;;;;;;14.07;7.03;;;;;;;;;;4968692;28;20051;-65
2022/07/09 06:01:04;;;;;;;6.97;3.30;;;;;;;;;;4963940;28;20061;-66
2022/07/09 06:03:31;;;;;;;9.93;5.18;;;;;;;;;;4969484;28;20047;-66
2022/07/09 06:05:57;;;;;;;14.10;6.57;;;;;;;;;;4969896;28;20050;-65
2022/07/09 06:08:24;;;;;;;32.67;15.90;;;;;;;;;;4958416;28;20067;-65
2022/07/09 06:10:51;;;;;;;21.42;9.60;;;;;;;;;;4968948;28;20368;-66
2022/07/09 06:13:19;;;;;;;10.15;5.22;;;;;;;;;;4964667;28;20106;-65
2022/07/09 06:15:46;;;;;;;14.57;6.22;;;;;;;;;;4969105;28;20051;-66
2022/07/09 06:18:13;;;;;;;13.20;7.13;;;;;;;;;;4964050;28;20058;-66
2022/07/09 06:20:41;;;;;;;12.85;6.38;;;;;;;;;;4968618;28;20069;-66
2022/07/09 06:23:08;;;;;;;;;;;;;;;;;;4956190;28;20050;-66
2022/07/09 06:25:34;;;;;;;7.55;3.55;;;;;;;;;;4959538;28;19944;-66
2022/07/09 06:28:01;;;;;;;15.82;6.85;;;;;;;;;;4955373;28;20054;-66
2022/07/09 06:30:29;;;;;;;9.90;4.72;;;;;;;;;;4964617;28;20131;-67
2022/07/09 06:32:56;;;;;;;7.82;3.40;;;;;;;;;;4958566;28;20102;-66
2022/07/09 06:35:22;;;;;;;7.15;3.30;;;;;;;;;;4958481;28;20056;-66
2022/07/09 06:37:49;;;;;;;9.95;4.70;;;;;;;;;;4953919;28;20054;-66
2022/07/09 06:40:16;;;;;;;8.20;4.45;;;;;;;;;;4964664;28;20058;-66
2022/07/09 06:42:42;;;;;;;11.57;5.03;;;;;;;;;;4956016;28;20059;-66
2022/07/09 06:45:09;;;;;;;12.68;6.20;;;;;;;;;;4957764;28;20047;-66
2022/07/09 06:47:37;;;;;;;15.73;6.65;;;;;;;;;;4960807;28;20061;-66
2022/07/09 06:50:05;;;;;;;6.57;3.08;;;;;;;;;;4957202;28;20058;-66
2022/07/09 06:52:31;;;;;;;11.27;5.65;;;;;;;;;;4960418;28;20097;-66
2022/07/09 06:54:58;;;;;;;16.63;6.57;;;;;;;;;;4958909;28;20051;-66
2022/07/09 06:57:25;;;;;;;14.15;5.30;;;;;;;;;;4955248;28;20144;-66
2022/07/09 06:59:51;;;;;;;14.63;6.18;;;;;;;;;;4956307;28;20062;-66
2022/07/09 07:02:18;;;;;;;16.50;6.60;;;;;;;;;;4957491;28;20066;-66
2022/07/09 07:04:46;;;;;;;13.10;6.35;;;;;;;;;;4953036;28;20051;-66
2022/07/09 07:07:13;;;;;;;10.25;4.40;;;;;;;;;;4961574;28;20055;-66
2022/07/09 07:09:39;;;;;;;9.63;5.22;;;;;;;;;;4959219;28;20058;-66
2022/07/09 07:12:07;;;;;;;12.18;6.15;;;;;;;;;;4958371;28;20047;-66
2022/07/09 07:14:33;;;;;;;13.52;5.90;;;;;;;;;;4955829;28;20050;-66
2022/07/09 07:17:00;;;;;;;9.00;4.78;;;;;;;;;;4966610;28;20051;-66
2022/07/09 07:19:26;;;;;;;9.68;4.88;;;;;;;;;;4968838;28;20050;-64
2022/07/09 07:21:55;;;;;;;13.05;5.78;;;;;;;;;;4951452;28;20059;-64
2022/07/09 07:24:21;;;;;;;9.63;4.40;;;;;;;;;;4968672;28;20051;-65
2022/07/09 07:26:48;;;;;;;10.73;4.53;;;;;;;;;;4962939;28;20047;-66
2022/07/09 07:29:15;;;;;;;7.60;3.50;;;;;;;;;;4969282;28;20081;-65
2022/07/09 07:31:41;;;;;;;13.38;6.13;;;;;;;;;;4962972;28;20051;-65
2022/07/09 07:34:08;;;;;;;16.85;6.63;;;;;;;;;;4969526;28;20054;-65
2022/07/09 07:36:35;;;;;;;14.98;6.88;;;;;;;;;;4965676;28;20121;-66
2022/07/09 07:39:03;;;;;;;10.15;4.97;;;;;;;;;;4965009;28;20082;-64
2022/07/09 07:41:29;;;;;;;10.13;4.60;;;;;;;;;;4968471;28;20059;-64
2022/07/09 07:43:56;;;;;;;9.23;4.50;;;;;;;;;;4978126;28;20062;-66
2022/07/09 07:46:22;;;;;;;8.25;4.20;;;;;;;;;;4969515;28;20124;-64
2022/07/09 07:48:50;;;;;;;11.57;5.15;;;;;;;;;;4958939;28;20070;-63
2022/07/09 07:51:17;;;;;;;7.50;2.95;;;;;;;;;;4964019;28;20054;-64
2022/07/09 07:53:43;;;;;;;12.13;5.25;;;;;;;;;;4963470;28;20063;-67
2022/07/09 07:56:14;;;;;;;11.35;5.88;;;;;;;;;;4964690;28;20129;-64
2022/07/09 07:58:40;;;;;;;11.48;5.63;;;;;;;;;;4966471;28;20046;-64
2022/07/09 08:01:08;;;;;;;10.40;4.97;;;;;;;;;;4959091;28;20062;-64
2022/07/09 08:03:34;;;;;;;12.52;4.90;;;;;;;;;;4968177;28;20081;-64
2022/07/09 08:06:01;;;;;;;12.02;4.30;;;;;;;;;;4958749;28;20066;-64
2022/07/09 08:08:28;;;;;;;9.85;5.32;;;;;;;;;;4967490;28;20062;-64
2022/07/09 08:10:55;;;;;;;6.85;3.40;;;;;;;;;;4958600;28;20090;-65
2022/07/09 08:13:22;;;;;;;9.70;4.55;;;;;;;;;;4967857;28;20061;-65
2022/07/09 08:15:49;;;;;;;10.13;4.95;;;;;;;;;;4964964;28;20051;-63
2022/07/09 08:18:16;;;;;;;18.15;4.35;;;;;;;;;;4977503;28;20054;-66
2022/07/09 08:20:43;;;;;;;5.75;2.70;;;;;;;;;;4967669;28;20046;-64
2022/07/09 08:23:09;;;;;;;10.55;5.40;;;;;;;;;;4957595;28;20077;-67
2022/07/09 08:25:36;;;;;;;8.85;4.22;;;;;;;;;;4960706;28;20074;-65
2022/07/09 08:28:02;;;;;;;7.45;3.45;;;;;;;;;;4951518;28;20102;-64
2022/07/09 08:30:31;;;;;;;7.07;3.28;;;;;;;;;;4959945;28;20050;-63
2022/07/09 08:32:58;;;;;;;6.20;3.10;;;;;;;;;;4952666;28;20055;-65
2022/07/09 08:35:25;;;;;;;7.80;4.13;;;;;;;;;;4961936;28;20059;-64
2022/07/09 08:37:52;;;;;;;9.05;4.18;;;;;;;;;;4954965;28;20071;-63
2022/07/09 08:40:20;;;;;;;10.40;4.60;;;;;;;;;;4959876;28;20059;-65
2022/07/09 08:42:47;;;;;;;9.00;3.53;;;;;;;;;;4957135;28;20055;-65
2022/07/09 08:45:14;;;;;;;11.25;3.42;;;;;;;;;;4957092;28;20089;-64
2022/07/09 08:47:42;;;;;;;5.90;3.13;;;;;;;;;;4954519;28;20114;-65
2022/07/09 08:50:09;;;;;;;;;;;;;;;;;;4959842;28;20114;-66
2022/07/09 08:52:38;;;;;;;7.25;2.70;;;;;;;;;;4955341;28;19937;-65
2022/07/09 08:55:07;;;;;;;12.15;5.80;;;;;;;;;;4961167;28;20174;-65
2022/07/09 08:57:33;;;;;;;;;;;;;;;;;;4958395;28;20133;-65
2022/07/09 09:00:03;;;;;;;9.77;3.92;;;;;;;;;;4955500;28;19926;-65
2022/07/09 09:02:35;;;;;;;7.57;3.15;;;;;;;;;;4970691;28;20137;-65
2022/07/09 09:05:06;;;;;;;6.93;2.63;;;;;;;;;;4963965;28;20054;-65
2022/07/09 09:07:33;;;;;;;10.52;4.80;;;;;;;;;;4967934;28;20090;-65
2022/07/09 09:10:02;;;;;;;6.20;2.83;;;;;;;;;;4963183;28;20049;-65
2022/07/09 09:12:29;;;;;;;7.68;3.45;;;;;;;;;;4967562;28;20125;-65
2022/07/09 09:14:56;;;;;;;7.65;3.78;;;;;;;;;;4962161;28;20051;-65
2022/07/09 09:17:22;;;;;;;9.60;4.78;;;;;;;;;;4967594;28;20062;-65
2022/07/09 09:19:49;;;;;;;11.45;5.50;;;;;;;;;;4962385;28;20050;-65
2022/07/09 09:22:18;;;;;;;10.77;5.93;;;;;;;;;;4994528;28;20123;-65
2022/07/09 09:24:45;;;;;;;8.52;4.70;;;;;;;;;;4974406;28;20050;-65
2022/07/09 09:27:14;;;;;;;13.38;5.47;;;;;;;;;;4967368;28;20083;-65
2022/07/09 09:29:49;;;;;;;11.05;4.68;;;;;;;;;;4965755;28;20053;-65
2022/07/09 09:32:19;;;;;;;8.85;4.28;;;;;;;;;;4986232;28;20046;-65
2022/07/09 09:34:49;;;;;;;13.27;5.20;;;;;;;;;;4978832;28;20116;-65
2022/07/09 09:37:25;;;;;;;10.07;4.90;;;;;;;;;;4986234;28;20050;-66
2022/07/09 09:39:52;;;;;;;6.70;3.88;;;;;;;;;;4967167;28;20049;-65
2022/07/09 09:42:20;;;;;;;5.80;3.20;;;;;;;;;;4989001;28;20170;-65
2022/07/09 09:44:50;;;;;;;10.43;5.38;;;;;;;;;;4984318;28;20054;-64
2022/07/09 09:47:19;;;;;;;10.80;4.80;;;;;;;;;;4989418;28;20062;-65
2022/07/09 09:49:46;;;;;;;9.85;4.50;;;;;;;;;;4986944;28;20064;-65
2022/07/09 09:52:13;;;;;;;10.70;4.30;;;;;;;;;;4984391;28;20065;-65
2022/07/09 09:54:42;;;;;;;7.63;3.30;;;;;;;;;;4990340;28;20061;-66
2022/07/09 09:57:10;;;;;;;8.25;2.88;;;;;;;;;;4984684;28;20121;-65
2022/07/09 09:59:38;;;;;;;6.20;2.90;;;;;;;;;;4990227;28;20124;-65
2022/07/09 10:02:06;;;;;;;6.95;3.28;;;;;;;;;;4971362;28;20074;-65
2022/07/09 10:04:33;;;;;;;7.82;2.80;;;;;;;;;;4970491;28;20054;-66
2022/07/09 10:07:00;;;;;;;7.05;2.50;;;;;;;;;;4977675;28;20066;-65
2022/07/09 10:09:26;;;;;;;7.97;3.05;;;;;;;;;;4990639;28;20058;-65
2022/07/09 10:11:58;;;;;;;5.90;2.70;;;;;;;;;;4987323;28;20058;-66
2022/07/09 10:14:32;;;;;;;11.35;3.38;;;;;;;;;;4992699;28;20054;-66
2022/07/09 10:17:10;;;;;;;6.22;2.13;;;;;;;;;;4993893;28;20133;-64
2022/07/09 10:19:37;;;;;;;5.43;2.28;;;;;;;;;;4999974;28;20073;-66
2022/07/09 10:22:07;;;;;;;8.98;2.58;;;;;;;;;;4988685;28;20058;-65
2022/07/09 10:24:34;;;;;;;5.38;2.10;;;;;;;;;;4992339;28;20058;-66
2022/07/09 10:27:09;;;;;;;5.38;1.90;;;;;;;;;;4980676;28;20141;-66
2022/07/09 10:29:37;;;;;;;6.20;2.17;;;;;;;;;;4972957;28;20058;-65
2022/07/09 10:32:22;;;;;;;3.08;1.75;;;;;;;;;;4967828;28;20051;-66
2022/07/09 10:34:54;;;;;;;6.72;2.03;;;;;;;;;;4972530;28;20109;-66
2022/07/09 10:37:31;;;;;;;4.50;1.77;;;;;;;;;;4968313;28;20074;-65
2022/07/09 10:40:15;;;;;;;5.45;1.90;;;;;;;;;;4953042;29;20043;-65
2022/07/09 10:42:43;;;;;;;6.07;1.75;;;;;;;;;;4957161;28;20126;-65
2022/07/09 10:45:20;;;;;;;5.40;1.85;;;;;;;;;;4991139;28;21255;-65
2022/07/09 10:47:50;;;;;;;2.95;1.70;;;;;;;;;;4984672;28;20058;-64
2022/07/09 10:50:17;;;;;;;1.55;1.15;;;;;;;;;;4990220;28;20061;-66
2022/07/09 10:52:46;;;;;;;3.92;1.33;;;;;;;;;;4985277;28;20054;-66
2022/07/09 10:55:13;;;;;;;3.58;1.33;;;;;;;;;;4991363;28;20113;-66
2022/07/09 10:57:39;;;;;;;2.50;1.15;;;;;;;;;;4985359;28;20087;-65
2022/07/09 11:00:11;;;;;;;3.60;1.42;;;;;;;;;;4990065;28;20054;-64
2022/07/09 11:02:39;;;;;;;4.10;1.45;;;;;;;;;;4972421;28;20062;-65
2022/07/09 11:05:06;;;;;;;2.70;1.17;;;;;;;;;;4968558;28;20087;-65
2022/07/09 11:07:35;;;;;;;2.60;1.10;;;;;;;;;;4972384;28;20051;-65
2022/07/09 11:10:07;;;;;;;1.60;0.90;;;;;;;;;;4983833;28;20064;-65
2022/07/09 11:12:33;;;;;;;3.22;1.38;;;;;;;;;;4992170;28;20054;-64
2022/07/09 11:15:00;;;;;;;2.47;1.02;;;;;;;;;;4970886;28;20047;-65
2022/07/09 11:17:26;;;;;;;5.15;1.08;;;;;;;;;;4971428;28;20113;-65
2022/07/09 11:19:56;;;;;;;2.25;1.00;;;;;;;;;;4967206;28;20066;-64
2022/07/09 11:22:24;;;;;;;1.75;1.00;;;;;;;;;;4986511;28;20050;-65
2022/07/09 11:24:51;;;;;;;3.00;1.23;;;;;;;;;;4996736;28;20039;-65
2022/07/09 11:27:18;;;;;;;5.15;1.60;;;;;;;;;;4991275;28;20054;-64
2022/07/09 11:29:47;;;;;;;2.83;1.27;;;;;;;;;;4978383;28;20057;-65
2022/07/09 11:32:16;;;;;;;1.15;0.90;;;;;;;;;;4971534;28;20050;-65
2022/07/09 11:34:50;;;;;;;2.45;1.30;;;;;;;;;;4979369;28;20054;-65
2022/07/09 11:37:23;;;;;;;3.42;1.20;;;;;;;;;;5010579;28;20057;-65
2022/07/09 11:39:53;;;;;;;1.95;1.00;;;;;;;;;;4978472;28;20046;-65
2022/07/09 11:42:20;;;;;;;2.75;1.30;;;;;;;;;;5010815;28;20144;-64
2022/07/09 11:44:54;;;;;;;6.88;1.30;;;;;;;;;;5004492;28;20129;-65
2022/07/09 11:47:22;;;;;;;4.63;1.00;;;;;;;;;;5009523;28;20104;-65
2022/07/09 11:49:50;;;;;;;2.15;1.00;;;;;;;;;;5002769;28;20137;-65
2022/07/09 11:52:18;;;;;;;7.22;1.00;;;;;;;;;;5010365;28;20089;-66
2022/07/09 11:54:56;;;;;;;5.00;1.10;;;;;;;;;;4990800;28;20125;-65
2022/07/09 11:57:23;;;;;;;;;;;;;;;;;;4989164;28;20053;-65
2022/07/09 11:59:55;;;;;;;2.53;0.90;;;;;;;;;;4989806;28;19981;-66
2022/07/09 12:02:25;;;;;;;2.17;1.20;;;;;;;;;;4988328;28;20050;-65
2022/07/09 12:04:52;;;;;;;4.28;1.30;;;;;;;;;;5023808;28;20090;-65
2022/07/09 12:07:19;;;;;;;3.85;1.00;;;;;;;;;;4969050;28;20042;-65
2022/07/09 12:09:45;;;;;;;1.83;1.10;;;;;;;;;;4971033;28;20062;-66
2022/07/09 12:12:14;;;;;;;2.03;1.00;;;;;;;;;;4981416;28;20122;-65
2022/07/09 12:14:40;;;;;;;4.03;1.17;;;;;;;;;;4989683;28;20064;-65
2022/07/09 12:17:07;;;;;;;2.40;1.13;;;;;;;;;;5004452;28;20055;-65
2022/07/09 12:19:33;;;;;;;0.93;0.73;;;;;;;;;;4990873;28;20054;-65
2022/07/09 12:22:00;;;;;;;2.55;1.02;;;;;;;;;;4987402;28;20077;-65
2022/07/09 12:24:27;;;;;;;1.92;1.10;;;;;;;;;;4990436;28;20050;-66
2022/07/09 12:26:53;;;;;;;3.38;0.90;;;;;;;;;;4984412;28;20062;-66
2022/07/09 12:29:21;;;;;;;3.25;1.00;;;;;;;;;;4988017;28;20060;-65
2022/07/09 12:31:50;;;;;;;3.75;0.95;;;;;;;;;;4983502;28;20065;-65
2022/07/09 12:34:16;;;;;;;3.25;1.10;;;;;;;;;;4985575;28;20055;-66
2022/07/09 12:36:43;;;;;;;1.55;0.82;;;;;;;;;;4982299;28;20050;-66
2022/07/09 12:39:10;;;;;;;3.08;0.77;;;;;;;;;;4987280;28;20051;-65
2022/07/09 12:41:36;;;;;;;1.88;0.80;;;;;;;;;;4981778;28;20050;-66
2022/07/09 12:44:03;;;;;;;3.78;0.82;;;;;;;;;;4980612;28;20058;-66
2022/07/09 12:46:31;;;;;;;2.50;0.80;;;;;;;;;;4984063;28;20054;-66
2022/07/09 12:48:58;;;;;;;4.85;0.88;;;;;;;;;;4979645;28;20054;-66
2022/07/09 12:51:26;;;;;;;2.92;1.02;;;;;;;;;;4985422;28;20054;-66
2022/07/09 12:53:53;;;;;;;2.63;0.90;;;;;;;;;;4977412;28;20050;-65
2022/07/09 12:56:20;;;;;;;1.30;0.80;;;;;;;;;;4981472;28;20121;-66
2022/07/09 12:58:46;;;;;;;2.65;0.88;;;;;;;;;;4976768;28;20053;-66
2022/07/09 13:01:13;;;;;;;2.45;1.00;;;;;;;;;;4982565;28;20066;-65
2022/07/09 13:03:41;;;;;;;2.33;0.90;;;;;;;;;;4974602;28;20065;-66
2022/07/09 13:06:30;;;;;;;5.00;0.85;;;;;;;;;;4991563;28;20053;-66
2022/07/09 13:08:56;;;;;;;3.47;0.82;;;;;;;;;;4979693;28;20059;-67
2022/07/09 13:11:24;;;;;;;1.27;0.70;;;;;;;;;;4985828;28;20050;-66
2022/07/09 13:13:50;;;;;;;2.95;0.90;;;;;;;;;;4980922;28;20064;-65
2022/07/09 13:16:17;;;;;;;4.60;0.90;;;;;;;;;;4988344;28;20050;-65
2022/07/09 13:18:45;;;;;;;3.80;0.77;;;;;;;;;;4987110;28;20128;-63
2022/07/09 13:21:14;;;;;;;2.55;0.80;;;;;;;;;;5002078;28;20046;-64
2022/07/09 13:23:41;;;;;;;4.55;0.88;;;;;;;;;;4968680;28;20055;-63
2022/07/09 13:26:08;;;;;;;3.92;0.95;;;;;;;;;;4966044;28;20079;-63
2022/07/09 13:28:34;;;;;;;3.17;0.70;;;;;;;;;;4973545;28;20055;-63
2022/07/09 13:31:02;;;;;;;3.90;1.05;;;;;;;;;;4966991;28;20074;-63
2022/07/09 13:33:29;;;;;;;5.95;0.90;;;;;;;;;;4988611;28;20059;-63
2022/07/09 13:35:57;;;;;;;5.55;0.93;;;;;;;;;;4969091;28;20058;-62
2022/07/09 13:38:23;;;;;;;2.20;0.80;;;;;;;;;;4984854;28;20101;-63
2022/07/09 13:40:55;;;;;;;2.83;0.77;;;;;;;;;;4973665;28;20047;-66
2022/07/09 13:43:24;;;;;;;5.32;0.82;;;;;;;;;;4966812;28;20054;-64
2022/07/09 13:45:51;;;;;;;2.03;0.75;;;;;;;;;;4972851;28;20043;-67
2022/07/09 13:48:18;;;;;;;2.80;0.90;;;;;;;;;;4976559;28;20063;-65
2022/07/09 13:50:45;;;;;;;2.55;0.90;;;;;;;;;;4971726;28;20114;-65
2022/07/09 13:53:13;;;;;;;3.25;0.90;;;;;;;;;;4965954;28;20066;-65
2022/07/09 13:55:39;;;;;;;2.42;0.80;;;;;;;;;;4973178;28;20046;-65
2022/07/09 13:58:06;;;;;;;5.07;0.80;;;;;;;;;;4970677;28;20047;-64
2022/07/09 14:00:33;;;;;;;3.97;0.90;;;;;;;;;;4969103;28;20057;-65
2022/07/09 14:03:00;;;;;;;2.47;0.98;;;;;;;;;;4972874;28;20061;-66
2022/07/09 14:05:26;;;;;;;3.15;0.70;;;;;;;;;;4964458;28;20097;-65
2022/07/09 14:07:53;;;;;;;2.78;0.82;;;;;;;;;;4962942;28;20039;-66
2022/07/09 14:10:21;;;;;;;5.55;0.90;;;;;;;;;;4963558;28;20055;-65
2022/07/09 14:12:48;;;;;;;3.60;0.90;;;;;;;;;;4972249;28;20055;-66
2022/07/09 14:15:15;;;;;;;2.58;0.73;;;;;;;;;;4967363;28;20054;-65
2022/07/09 14:17:41;;;;;;;3.00;0.70;;;;;;;;;;4969703;28;20058;-65
2022/07/09 14:20:08;;;;;;;1.65;0.70;;;;;;;;;;4985625;28;20109;-65
2022/07/09 14:22:35;;;;;;;5.38;0.80;;;;;;;;;;4967059;28;20055;-65
2022/07/09 14:25:01;;;;;;;1.45;0.85;;;;;;;;;;4971670;28;20175;-65
2022/07/09 14:27:29;;;;;;;2.95;0.80;;;;;;;;;;4967451;28;20081;-65
2022/07/09 14:29:57;;;;;;;3.85;0.90;;;;;;;;;;4972072;28;20054;-66
2022/07/09 14:32:24;;;;;;;3.63;0.90;;;;;;;;;;4967432;28;20057;-65
2022/07/09 14:34:51;;;;;;;6.32;1.00;;;;;;;;;;4971689;28;20093;-65
2022/07/09 14:37:18;;;;;;;10.38;1.60;;;;;;;;;;4966772;28;20046;-66
2022/07/09 14:39:45;;;;;;;3.15;0.68;;;;;;;;;;4985174;28;20054;-64
2022/07/09 14:42:11;;;;;;;1.90;0.70;;;;;;;;;;4966459;28;20061;-65
2022/07/09 14:44:39;;;;;;;2.75;0.98;;;;;;;;;;4971213;28;20062;-64